Time;durP1;ratioP1;P1;durP2;ratioP2;P2;SDS_P1;SDS_P2;PMS_P1;PMS_P2;Temp;Humidity;BMP_temperature;BMP_pressure;BME280_temperature;BME280_humidity;BME280_pressure;Samples;Min_cycle;Max_cycle;Signal;HPM_P1;HPM_P2
2022/12/27 00:00:09;;;;;;;;;6.67;6.67;;;;;7.61;100.00;102009.69;6255753;22;45329;-85
2022/12/27 00:02:37;;;;;;;;;2.67;2.67;;;;;7.66;100.00;102015.19;6257861;22;44879;-85
2022/12/27 00:05:05;;;;;;;;;3.67;3.67;;;;;7.65;100.00;102016.00;6229937;22;45328;-86
2022/12/27 00:07:31;;;;;;;;;5.33;3.67;;;;;7.64;100.00;102008.94;6227408;22;46617;-86
2022/12/27 00:09:57;;;;;;;;;6.33;4.00;;;;;7.67;100.00;102008.16;6229179;22;45391;-84
2022/12/27 00:12:23;;;;;;;;;3.33;3.33;;;;;7.72;100.00;102020.78;6231456;22;45307;-85
2022/12/27 00:14:50;;;;;;;;;3.00;2.00;;;;;7.76;100.00;102028.03;6259891;22;45370;-85
2022/12/27 00:17:15;;;;;;;;;4.00;4.00;;;;;7.80;100.00;102015.84;6259973;22;44997;-85
2022/12/27 00:19:41;;;;;;;;;3.33;3.33;;;;;7.81;100.00;102025.56;6236547;22;45436;-85
2022/12/27 00:22:06;;;;;;;;;7.00;5.33;;;;;7.81;100.00;102025.56;6258277;22;44719;-86
2022/12/27 00:24:34;;;;;;;;;7.00;4.67;;;;;7.81;100.00;102026.47;6258725;22;45310;-85
2022/12/27 00:26:59;;;;;;;;;6.33;4.67;;;;;7.81;100.00;102028.22;6233266;22;45310;-85
2022/12/27 00:29:25;;;;;;;;;4.00;4.00;;;;;7.72;100.00;102018.13;6232681;22;45429;-85
2022/12/27 00:31:50;;;;;;;;;4.67;4.67;;;;;7.68;100.00;102021.47;6257491;22;44741;-85
2022/12/27 00:34:16;;;;;;;;;2.67;2.67;;;;;7.71;100.00;102034.84;6258920;22;44753;-85
2022/12/27 00:36:41;;;;;;;;;6.67;3.67;;;;;7.66;100.00;102025.78;6256240;22;45440;-85
2022/12/27 00:39:10;;;;;;;;;4.33;2.33;;;;;7.68;100.00;102031.16;6231139;22;45370;-85
2022/12/27 00:41:35;;;;;;;;;7.67;3.67;;;;;7.67;100.00;102034.63;6230919;22;45334;-85
2022/12/27 00:44:00;;;;;;;;;4.00;3.00;;;;;7.61;100.00;102029.94;6231657;22;45351;-86
2022/12/27 00:46:26;;;;;;;;;3.00;3.00;;;;;7.61;100.00;102029.94;6258074;22;46846;-85
2022/12/27 00:48:52;;;;;;;;;2.00;2.00;;;;;7.64;100.00;102030.09;6259322;22;45443;-85
2022/12/27 00:51:23;;;;;;;;;3.00;3.00;;;;;7.64;100.00;102031.84;6231652;22;44813;-85
2022/12/27 00:53:50;;;;;;;;;3.00;3.00;;;;;7.70;100.00;102045.38;6230760;22;45599;-85
2022/12/27 00:56:20;;;;;;;;;6.00;6.00;;;;;7.71;100.00;102044.53;6230071;22;47927;-85
2022/12/27 00:58:47;;;;;;;;;3.33;3.00;;;;;7.70;100.00;102051.56;6204917;22;45485;-85
2022/12/27 01:01:15;;;;;;;;;4.67;4.00;;;;;7.69;100.00;102047.09;6259319;22;44669;-85
2022/12/27 01:03:41;;;;;;;;;4.00;4.00;;;;;7.59;100.00;102031.63;6259200;22;45290;-85
2022/12/27 01:06:12;;;;;;;;;5.33;3.00;;;;;7.66;100.00;102044.31;6230119;22;46655;-84
2022/12/27 01:08:38;;;;;;;;;2.33;2.33;;;;;7.57;100.00;102034.22;6230758;22;45272;-85
2022/12/27 01:11:05;;;;;;;;;2.33;2.33;;;;;7.56;100.00;102031.50;6230569;22;44770;-85
2022/12/27 01:13:31;;;;;;;;;2.00;2.00;;;;;7.65;100.00;102052.19;6232507;22;45422;-85
2022/12/27 01:15:56;;;;;;;;;3.67;3.33;;;;;7.62;100.00;102047.66;6261906;22;44912;-85
2022/12/27 01:18:22;;;;;;;;;3.33;2.33;;;;;7.65;100.00;102055.72;6235440;22;44869;-86
2022/12/27 01:20:48;;;;;;;;;7.33;3.00;;;;;7.60;100.00;102051.97;6233880;22;44819;-85
2022/12/27 01:23:15;;;;;;;;;3.00;3.00;;;;;7.68;100.00;102070.88;6233746;22;45007;-85
2022/12/27 01:25:40;;;;;;;;;4.00;2.67;;;;;7.68;100.00;102062.94;6259063;22;45444;-85
2022/12/27 01:28:12;;;;;;;;;3.00;3.00;;;;;7.68;100.00;102069.13;6231437;22;45999;-85
2022/12/27 01:30:38;;;;;;;;;3.00;3.00;;;;;7.65;100.00;102058.38;6258081;22;45329;-85
2022/12/27 01:33:03;;;;;;;;;4.67;3.67;;;;;7.73;100.00;102061.38;6258832;22;45445;-84
2022/12/27 01:35:29;;;;;;;;;1.67;1.67;;;;;7.71;100.00;102053.38;6260487;22;45305;-84
2022/12/27 01:37:54;;;;;;;;;4.00;4.00;;;;;7.78;100.00;102065.19;6233478;22;45442;-85
2022/12/27 01:40:20;;;;;;;;;3.00;3.00;;;;;7.80;100.00;102058.22;6258678;22;45457;-86
2022/12/27 01:42:51;;;;;;;;;1.67;1.67;;;;;7.82;100.00;102064.47;6231544;22;44967;-85
2022/12/27 01:45:21;;;;;;;;;3.00;3.00;;;;;7.89;100.00;102063.00;6257579;22;45589;-85
2022/12/27 01:48:00;;;;;;;;;4.33;4.33;;;;;7.89;100.00;102069.22;6257986;22;45327;-85
2022/12/27 01:53:50;;;;;;;;;1.00;1.00;;;;;7.89;100.00;102068.31;6262565;22;45333;-85
2022/12/27 01:56:29;;;;;;;;;2.33;2.33;;;;;7.91;100.00;102069.28;6261529;22;45337;-85
2022/12/27 01:59:06;;;;;;;;;3.00;2.00;;;;;7.90;100.00;102065.75;6231315;22;45316;-85
2022/12/27 02:01:38;;;;;;;;;2.33;2.33;;;;;7.93;100.00;102067.63;6229244;22;45292;-85
2022/12/27 02:04:06;;;;;;;;;2.67;2.67;;;;;7.92;100.00;102068.47;6230043;22;45373;-86
2022/12/27 02:06:33;;;;;;;;;4.00;4.00;;;;;7.73;100.00;102045.50;6230096;22;46292;-85
2022/12/27 02:09:15;;;;;;;;;2.00;2.00;;;;;7.92;100.00;102085.25;6231560;22;45388;-85
2022/12/27 02:11:51;;;;;;;;;4.00;3.33;;;;;7.94;100.00;102093.28;6256248;22;45340;-85
2022/12/27 02:14:39;;;;;;;;;3.00;3.00;;;;;7.80;100.00;102064.41;6230467;22;45363;-85
2022/12/27 02:17:08;;;;;;;;;2.67;2.67;;;;;7.85;100.00;102084.91;6228721;22;46671;-85
2022/12/27 02:19:40;;;;;;;;;2.33;2.33;;;;;7.85;100.00;102093.75;6230555;22;45459;-85
2022/12/27 02:22:05;;;;;;;;;2.00;2.00;;;;;7.79;100.00;102089.06;6231727;22;45307;-85
2022/12/27 02:24:40;;;;;;;;;5.33;3.33;;;;;7.75;100.00;102086.22;6261050;22;44829;-85
2022/12/27 02:27:12;;;;;;;;;3.00;3.00;;;;;7.68;100.00;102085.03;6234027;22;47148;-86
2022/12/27 02:29:42;;;;;;;;;3.67;3.33;;;;;7.65;100.00;102083.97;6233804;22;45332;-85
2022/12/27 02:32:38;;;;;;;;;2.00;1.67;;;;;7.51;100.00;102054.19;6234340;22;45160;-85
2022/12/27 02:35:19;;;;;;;;;3.00;3.00;;;;;7.60;100.00;102075.81;6247748;22;45294;-85
2022/12/27 02:37:50;;;;;;;;;1.00;1.00;;;;;7.69;100.00;102085.91;6231179;22;47069;-85
2022/12/27 02:53:03;;;;;;;;;3.00;3.00;;;;;7.72;100.00;102080.78;6261019;22;45461;-86
2022/12/27 02:55:33;;;;;;;;;2.00;2.00;;;;;7.74;100.00;102085.31;6233101;22;45457;-86
2022/12/27 02:58:19;;;;;;;;;2.67;2.00;;;;;7.77;100.00;102085.44;6235776;22;45260;-86
2022/12/27 03:07:40;;;;;;;;;2.00;2.00;;;;;7.76;100.00;102091.59;6264849;22;45319;-86
2022/12/27 03:16:08;;;;;;;;;2.00;2.00;;;;;7.79;100.00;102093.47;6259461;22;44819;-86
2022/12/27 03:18:49;;;;;;;;;2.00;2.00;;;;;7.80;100.00;102085.59;6232858;22;45419;-86
2022/12/27 03:27:03;;;;;;;;;2.33;2.33;;;;;7.73;100.00;102082.56;6259876;22;45147;-86
2022/12/27 03:35:16;;;;;;;;;6.00;3.67;;;;;7.81;100.00;102091.78;6258669;22;45363;-85
2022/12/27 03:38:04;;;;;;;;;3.67;3.00;;;;;7.81;100.00;102092.69;6261333;22;45248;-85
2022/12/27 03:40:33;;;;;;;;;2.67;2.67;;;;;7.78;100.00;102096.97;6260519;22;44850;-84
2022/12/27 03:43:12;;;;;;;;;3.00;3.00;;;;;7.75;100.00;102087.09;6233200;22;45314;-85
2022/12/27 03:46:35;;;;;;;;;3.33;3.33;;;;;7.80;100.00;102090.88;6237727;22;46983;-85
2022/12/27 03:49:07;;;;;;;;;5.00;4.67;;;;;7.54;100.00;102051.69;6107786;23;45377;-86
2022/12/27 03:51:41;;;;;;;;;6.33;4.00;;;;;7.72;100.00;102086.06;6108319;23;44807;-86
2022/12/27 03:54:30;;;;;;;;;3.67;3.67;;;;;7.72;100.00;102084.31;6109856;23;44742;-86
2022/12/27 03:57:08;;;;;;;;;2.00;2.00;;;;;7.79;100.00;102094.34;6109301;23;45229;-86
2022/12/27 03:59:34;;;;;;;;;3.67;3.67;;;;;7.69;100.00;102084.16;6110887;23;44773;-85
2022/12/27 04:02:00;;;;;;;;;3.00;3.00;;;;;7.80;100.00;102105.88;6112350;23;45330;-85
2022/12/27 04:04:26;;;;;;;;;2.67;2.67;;;;;7.79;100.00;102096.09;6088247;23;44803;-85
2022/12/27 04:06:52;;;;;;;;;5.33;3.00;;;;;7.72;100.00;102081.69;6110752;23;46772;-86
2022/12/27 04:36:39;;;;;;;;;2.00;2.00;;;;;7.60;100.00;102087.28;6261065;22;45320;-85
2022/12/27 04:39:04;;;;;;;;;5.33;3.67;;;;;7.67;100.00;102092.88;6258078;22;46692;-83
2022/12/27 04:54:55;;;;;;;;;2.00;2.00;;;;;7.64;100.00;102088.34;6260251;22;45299;-84
2022/12/27 04:55:55;;;;;;;;;3.00;3.00;;;;;7.68;100.00;102095.63;6258434;22;45263;-85
2022/12/27 04:58:20;;;;;;;;;5.67;3.67;;;;;7.66;100.00;102094.63;6231727;22;44892;-85
2022/12/27 05:03:31;;;;;;;;;6.00;3.00;;;;;7.57;100.00;102091.53;6259177;22;45320;-85
2022/12/27 05:05:56;;;;;;;;;6.00;6.00;;;;;7.61;100.00;102098.78;6260477;22;45333;-85
2022/12/27 05:14:00;;;;;;;;;6.00;3.00;;;;;7.57;100.00;102081.88;6263365;22;45252;-85
2022/12/27 05:16:37;;;;;;;;;6.67;4.00;;;;;7.66;100.00;102089.34;6233249;22;44642;-86
2022/12/27 05:19:04;;;;;;;;;7.33;4.00;;;;;7.61;100.00;102078.53;6233264;22;44793;-86
2022/12/27 05:21:30;;;;;;;;;3.67;3.67;;;;;7.66;100.00;102084.03;6258512;22;45434;-86
2022/12/27 05:26:39;;;;;;;;;3.00;3.00;;;;;7.66;100.00;102085.78;6258815;22;45246;-85
2022/12/27 05:29:06;;;;;;;;;5.33;3.67;;;;;7.58;100.00;102082.78;6259996;22;45355;-86
2022/12/27 05:31:33;;;;;;;;;2.00;1.00;;;;;7.68;100.00;102089.41;6231089;22;48311;-86
2022/12/27 05:33:58;;;;;;;;;4.00;4.00;;;;;7.67;100.00;102085.84;6258694;22;45269;-86
2022/12/27 05:36:25;;;;;;;;;4.33;4.33;;;;;7.69;100.00;102086.81;6259582;22;45358;-86
2022/12/27 05:38:51;;;;;;;;;3.00;2.00;;;;;7.65;100.00;102074.25;6261025;22;45368;-86
2022/12/27 05:41:17;;;;;;;;;4.00;3.00;;;;;7.49;100.00;102051.44;6233002;22;47176;-86
2022/12/27 05:43:43;;;;;;;;;8.67;4.67;;;;;7.55;100.00;102070.31;6234236;22;45778;-85
2022/12/27 05:46:12;;;;;;;;;5.00;3.67;;;;;7.56;100.00;102069.44;6234717;22;45239;-86
2022/12/27 05:48:39;;;;;;;;;3.00;3.00;;;;;7.61;100.00;102083.84;6233082;22;45201;-86
2022/12/27 05:51:12;;;;;;;;;4.00;4.00;;;;;7.57;100.00;102083.59;6261248;22;48354;-85
2022/12/27 05:53:38;;;;;;;;;4.67;4.67;;;;;7.49;100.00;102077.91;6264911;22;44679;-85
2022/12/27 05:56:05;;;;;;;;;3.67;3.67;;;;;7.47;100.00;102081.34;6264336;22;45294;-85
2022/12/27 05:58:31;;;;;;;;;3.00;3.00;;;;;7.45;100.00;102083.91;6239886;22;44723;-85
2022/12/27 06:00:58;;;;;;;;;4.00;4.00;;;;;7.36;100.00;102076.44;6266658;22;45265;-85
2022/12/27 06:03:24;;;;;;;;;3.33;3.33;;;;;7.39;100.00;102081.88;6239038;22;44836;-85
2022/12/27 06:05:50;;;;;;;;;3.33;3.33;;;;;7.35;100.00;102074.63;6238423;22;45527;-85
2022/12/27 06:08:15;;;;;;;;;4.33;2.33;;;;;7.29;100.00;102055.81;6235912;22;44852;-85
2022/12/27 06:10:47;;;;;;;;;1.67;1.67;;;;;7.20;100.00;102034.19;6234062;22;46625;-85
2022/12/27 06:13:13;;;;;;;;;2.00;2.00;;;;;7.30;100.00;102057.59;6239286;22;45263;-85
2022/12/27 06:15:39;;;;;;;;;4.00;3.00;;;;;7.33;100.00;102071.00;6237747;22;44768;-85
2022/12/27 06:18:05;;;;;;;;;6.00;3.00;;;;;7.19;100.00;102040.28;6262352;22;45399;-85
2022/12/27 06:20:31;;;;;;;;;6.00;4.33;;;;;7.30;100.00;102065.53;6236043;22;46849;-86
2022/12/27 06:22:59;;;;;;;;;8.00;4.00;;;;;7.31;100.00;102070.03;6237146;22;45398;-86
2022/12/27 06:25:25;;;;;;;;;3.67;3.67;;;;;7.35;100.00;102072.00;6237720;22;45250;-85
2022/12/27 06:27:50;;;;;;;;;5.33;3.33;;;;;7.27;100.00;102062.78;6237861;22;45268;-85
2022/12/27 06:30:16;;;;;;;;;9.33;8.00;;;;;7.30;100.00;102072.59;6240814;22;45221;-85
2022/12/27 06:32:42;;;;;;;;;6.33;4.33;;;;;7.25;100.00;102072.38;6242225;22;45928;-85
2022/12/27 06:35:07;;;;;;;;;4.00;4.00;;;;;7.29;100.00;102074.34;6241406;22;44950;-86
2022/12/27 06:37:33;;;;;;;;;4.33;4.33;;;;;7.25;100.00;102061.78;6239260;22;45461;-85
2022/12/27 06:39:58;;;;;;;;;5.33;4.67;;;;;7.28;100.00;102067.22;6263055;22;45292;-86
2022/12/27 06:42:24;;;;;;;;;5.67;3.33;;;;;7.12;100.00;102043.50;6263355;22;45343;-86
2022/12/27 06:44:49;;;;;;;;;4.33;4.33;;;;;7.24;100.00;102067.91;6236456;22;44661;-86
2022/12/27 06:47:15;;;;;;;;;3.33;3.33;;;;;7.23;100.00;102058.16;6264006;22;45181;-86
2022/12/27 06:49:40;;;;;;;;;5.67;5.67;;;;;7.29;100.00;102068.13;6235389;22;46661;-86
2022/12/27 06:52:06;;;;;;;;;4.33;3.00;;;;;7.33;100.00;102073.66;6236420;22;45482;-86
2022/12/27 06:54:35;;;;;;;;;6.00;5.00;;;;;7.33;100.00;102070.06;6244218;22;45225;-86
2022/12/27 06:57:06;;;;;;;;;6.67;6.67;;;;;7.20;100.00;102052.69;6269507;22;45294;-86
2022/12/27 06:59:33;;;;;;;;;6.33;6.33;;;;;7.14;100.00;102047.13;6237636;22;45501;-85
2022/12/27 07:01:58;;;;;;;;;2.00;2.00;;;;;7.27;100.00;102070.72;6239472;22;45167;-85
2022/12/27 07:04:24;;;;;;;;;5.33;5.00;;;;;7.24;100.00;102046.72;6238720;22;45336;-85
2022/12/27 07:06:49;;;;;;;;;6.33;6.00;;;;;7.23;100.00;102042.28;6239661;22;45137;-84
2022/12/27 07:09:15;;;;;;;;;4.00;3.00;;;;;7.32;100.00;102053.28;6237371;22;47779;-84
2022/12/27 07:11:40;;;;;;;;;6.00;5.33;;;;;7.48;100.00;102064.63;6262411;22;45295;-85
2022/12/27 07:14:12;;;;;;;;;5.00;4.33;;;;;7.48;100.00;102069.94;6237264;22;44670;-85
2022/12/27 07:16:38;;;;;;;;;5.33;4.67;;;;;7.42;100.00;102057.31;6263977;22;45402;-85
2022/12/27 07:19:03;;;;;;;;;3.67;3.67;;;;;7.50;100.00;102068.25;6264173;22;45499;-85
2022/12/27 07:21:29;;;;;;;;;4.67;4.67;;;;;7.45;100.00;102060.06;6261759;22;45314;-85
2022/12/27 07:23:56;;;;;;;;;6.33;6.33;;;;;7.56;100.00;102076.50;6236091;22;45237;-85
2022/12/27 07:26:28;;;;;;;;;3.67;3.00;;;;;7.60;100.00;102087.28;6235474;22;45495;-85
2022/12/27 07:28:58;;;;;;;;;7.00;4.00;;;;;7.57;100.00;102084.53;6236114;22;47676;-85
2022/12/27 07:31:28;;;;;;;;;7.67;6.00;;;;;7.62;100.00;102090.03;6263198;22;45467;-85
2022/12/27 07:37:16;;;;;;;;;3.67;3.00;;;;;7.58;100.00;102075.72;6265777;22;45530;-85
2022/12/27 07:39:43;;;;;;;;;3.00;3.00;;;;;7.55;100.00;102072.03;6238295;22;46291;-84
2022/12/27 07:42:08;;;;;;;;;4.67;4.67;;;;;7.60;100.00;102082.00;6237719;22;44785;-84
2022/12/27 07:44:34;;;;;;;;;3.00;3.00;;;;;7.59;100.00;102073.97;6239146;22;45217;-85
2022/12/27 07:46:59;;;;;;;;;4.00;4.00;;;;;7.66;100.00;102086.69;6236979;22;45449;-85
2022/12/27 07:49:25;;;;;;;;;6.67;4.67;;;;;7.68;100.00;102084.13;6236437;22;47427;-85
2022/12/27 07:51:51;;;;;;;;;3.00;3.00;;;;;7.51;100.00;102060.38;6237653;22;45330;-85
2022/12/27 07:57:38;;;;;;;;;6.67;6.00;;;;;7.57;100.00;102080.94;6264759;22;45080;-86
2022/12/27 08:00:05;;;;;;;;;9.00;9.00;;;;;7.58;100.00;102083.66;6238141;22;47596;-87
2022/12/27 08:02:30;;;;;;;;;9.00;7.33;;;;;7.61;100.00;102093.50;6262754;22;44689;-85
2022/12/27 08:04:56;;;;;;;;;7.00;6.00;;;;;7.54;100.00;102080.81;6237889;22;45283;-85
2022/12/27 08:10:43;;;;;;;;;5.67;4.67;;;;;7.59;100.00;102089.88;6265828;22;45731;-85
2022/12/27 08:13:09;;;;;;;;;5.33;5.33;;;;;7.58;100.00;102080.13;6265893;22;44712;-86
2022/12/27 08:15:40;;;;;;;;;5.33;5.33;;;;;7.65;100.00;102094.56;6265650;22;45349;-86
2022/12/27 08:18:11;;;;;;;;;7.33;5.67;;;;;7.57;100.00;102073.94;6239652;22;45254;-86
2022/12/27 08:20:53;;;;;;;;;8.67;6.33;;;;;7.69;100.00;102091.22;6263708;22;47257;-85
2022/12/27 08:23:25;;;;;;;;;6.67;5.33;;;;;7.66;100.00;102097.28;6236307;22;45123;-86
2022/12/27 08:25:50;;;;;;;;;7.33;5.67;;;;;7.59;100.00;102079.28;6238717;22;45400;-85
2022/12/27 08:28:23;;;;;;;;;5.33;4.33;;;;;7.72;100.00;102107.25;6263971;22;45691;-86
2022/12/27 08:30:52;;;;;;;;;3.67;3.67;;;;;7.52;100.00;102066.59;6237869;22;45330;-86
2022/12/27 08:33:18;;;;;;;;;9.00;9.00;;;;;7.66;100.00;102088.44;6237050;22;45279;-84
2022/12/27 08:35:47;;;;;;;;;8.33;8.33;;;;;7.69;100.00;102096.50;6235519;22;45248;-85
2022/12/27 08:38:13;;;;;;;;;8.33;8.00;;;;;7.68;100.00;102098.25;6236992;22;44819;-86
2022/12/27 08:40:41;;;;;;;;;5.67;5.67;;;;;7.73;100.00;102109.97;6236318;22;46848;-85
2022/12/27 08:43:07;;;;;;;;;11.00;7.00;;;;;7.68;100.00;102098.25;6262772;22;45408;-85
2022/12/27 08:45:33;;;;;;;;;5.33;3.67;;;;;7.75;100.00;102108.28;6235138;22;45384;-84
2022/12/27 08:48:00;;;;;;;;;5.33;3.00;;;;;7.72;100.00;102102.88;6265466;22;44752;-86
2022/12/27 08:50:27;;;;;;;;;5.00;5.00;;;;;7.82;100.00;102112.16;6239451;22;47146;-84
2022/12/27 08:53:00;;;;;;;;;7.00;7.00;;;;;7.60;100.00;102062.56;6261358;22;44814;-85
2022/12/27 08:55:27;;;;;;;;;8.00;8.00;;;;;7.82;100.00;102109.50;6237957;22;44681;-86
2022/12/27 08:57:58;;;;;;;;;5.00;4.33;;;;;7.89;100.00;102126.59;6239930;22;44792;-84
2022/12/27 09:00:25;;;;;;;;;8.00;7.00;;;;;7.60;100.00;102076.69;6237849;22;46721;-85
2022/12/27 09:02:57;;;;;;;;;7.00;6.00;;;;;7.61;100.00;102086.47;6239237;22;44729;-85
2022/12/27 09:05:25;;;;;;;;;8.00;6.00;;;;;7.79;100.00;102126.13;6237822;22;44776;-86
2022/12/27 09:07:52;;;;;;;;;8.33;6.67;;;;;7.51;100.00;102076.25;6239303;22;44837;-84
2022/12/27 09:10:19;;;;;;;;;6.00;4.00;;;;;7.51;100.00;102072.69;6238494;22;47743;-87
2022/12/27 09:12:47;;;;;;;;;6.67;6.67;;;;;7.49;100.00;102077.03;6265748;22;44692;-85
2022/12/27 09:15:16;;;;;;;;;8.00;6.67;;;;;7.65;100.00;102100.75;6236186;22;44769;-86
2022/12/27 09:17:42;;;;;;;;;5.33;5.33;;;;;7.71;100.00;102106.34;6265841;22;44729;-85
2022/12/27 09:20:11;;;;;;;;;5.33;4.33;;;;;7.86;100.00;102126.44;6235935;22;47876;-85
2022/12/27 09:22:37;;;;;;;;;6.00;6.00;;;;;7.85;100.00;102119.34;6238884;22;45738;-85
2022/12/27 09:25:03;;;;;;;;;7.00;7.00;;;;;7.85;100.00;102119.34;6238156;22;44734;-86
2022/12/27 09:27:32;;;;;;;;;8.67;8.00;;;;;7.77;100.00;102118.97;6265497;22;45271;-86
2022/12/27 09:29:59;;;;;;;;;9.00;8.33;;;;;7.88;100.00;102130.09;6236866;22;47173;-85
2022/12/27 09:32:26;;;;;;;;;4.67;4.00;;;;;7.92;100.00;102124.09;6236544;22;45789;-85
2022/12/27 09:34:53;;;;;;;;;6.00;6.00;;;;;7.98;100.00;102127.03;6262447;22;44682;-85
2022/12/27 09:37:24;;;;;;;;;6.67;6.67;;;;;7.87;100.00;102117.66;6240011;22;45339;-86
2022/12/27 09:39:50;;;;;;;;;6.00;6.00;;;;;8.06;100.00;102144.19;6236030;22;46136;-85
2022/12/27 09:42:24;;;;;;;;;7.00;7.00;;;;;8.16;100.00;102143.78;6263833;22;45437;-86
2022/12/27 09:45:18;;;;;;;;;7.33;6.00;;;;;8.04;100.00;102121.09;6239674;22;45239;-85
2022/12/27 09:47:57;;;;;;;;;4.00;4.00;;;;;8.16;100.00;102140.19;6263551;22;44816;-86
2022/12/27 09:50:44;;;;;;;;;5.33;5.33;;;;;8.23;100.00;102139.66;6238956;22;45258;-85
2022/12/27 09:53:16;;;;;;;;;7.67;7.67;;;;;8.26;100.00;102142.47;6266413;22;45183;-86
2022/12/27 09:56:22;;;;;;;;;4.00;4.00;;;;;8.23;100.00;102144.97;6239318;22;45363;-86
2022/12/27 09:59:12;;;;;;;;;6.33;6.33;;;;;8.14;100.00;102125.97;6238018;22;45184;-86
2022/12/27 10:01:43;;;;;;;;;6.67;6.67;;;;;8.13;100.00;102135.69;6262725;22;45440;-84
2022/12/27 10:04:12;;;;;;;;;4.67;4.67;;;;;8.18;100.00;102144.75;6237714;22;45626;-86
2022/12/27 10:06:49;;;;;;;;;6.67;6.67;;;;;8.23;100.00;102133.47;6238612;22;45190;-85
2022/12/27 10:09:39;;;;;;;;;8.00;5.33;;;;;8.27;100.00;102122.16;6259491;22;45602;-86
2022/12/27 10:12:42;;;;;;;;;11.33;8.67;;;;;8.26;100.00;102115.97;6236348;22;45387;-85
2022/12/27 10:15:39;;;;;;;;;15.00;12.00;;;;;8.30;100.00;102114.34;6264347;22;45255;-86
2022/12/27 10:18:13;;;;;;;;;9.00;9.00;;;;;8.33;100.00;102119.78;6237009;22;45233;-84
2022/12/27 10:21:13;;;;;;;;;11.00;10.33;;;;;8.38;100.00;102110.28;6263169;22;44734;-86
2022/12/27 10:23:43;;;;;;;;;8.67;8.67;;;;;8.37;100.00;102104.09;6224066;22;47644;-87
2022/12/27 10:26:16;;;;;;;;;10.67;8.00;;;;;8.48;100.00;102109.00;6236858;22;45317;-86
2022/12/27 10:29:06;;;;;;;;;9.00;7.67;;;;;8.55;100.00;102111.09;6261225;22;44676;-85
2022/12/27 10:31:41;;;;;;;;;12.67;12.67;;;;;8.58;100.00;102109.50;6262506;22;45305;-87
2022/12/27 10:34:13;;;;;;;;;9.33;9.33;;;;;8.48;100.00;102087.78;6211333;22;47009;-86
2022/12/27 10:36:44;;;;;;;;;10.33;8.67;;;;;8.57;100.00;102107.66;6235490;22;45300;-86
2022/12/27 10:39:35;;;;;;;;;4.67;4.67;;;;;8.66;100.00;102119.50;6263547;22;45191;-86
2022/12/27 10:42:22;;;;;;;;;8.00;7.00;;;;;8.73;100.00;102114.56;6234583;22;45406;-86
2022/12/27 10:45:25;;;;;;;;;11.00;7.00;;;;;8.78;100.00;102110.34;6264830;22;45600;-86
2022/12/27 10:47:54;;;;;;;;;4.00;4.00;;;;;8.82;100.00;102111.38;6265833;22;44658;-86
2022/12/27 10:50:24;;;;;;;;;5.67;5.33;;;;;8.82;100.00;102100.78;6237935;22;45201;-87
2022/12/27 10:53:13;;;;;;;;;4.00;4.00;;;;;8.91;100.00;102106.47;6239892;22;45414;-87
2022/12/27 10:55:39;;;;;;;;;6.33;2.33;;;;;8.96;100.00;102115.53;6239423;22;45345;-86
2022/12/27 10:58:41;;;;;;;;;8.00;7.00;;;;;8.87;100.00;102083.31;6236774;22;44765;-85
2022/12/27 11:01:24;;;;;;;;;7.67;6.33;;;;;9.11;100.00;102114.38;6264135;22;45392;-86
2022/12/27 11:03:51;;;;;;;;;8.00;4.00;;;;;8.92;100.00;102072.88;6238538;22;45274;-86
2022/12/27 11:06:24;;;;;;;;;4.67;4.67;;;;;9.18;100.00;102106.72;6235222;22;45283;-85
2022/12/27 11:08:53;;;;;;;;;6.00;3.67;;;;;9.23;100.00;102111.31;6264301;22;45305;-85
2022/12/27 11:11:24;;;;;;;;;4.00;4.00;;;;;9.18;100.00;102079.28;6265592;22;44762;-86
2022/12/27 11:14:08;;;;;;;;;7.33;3.00;;;;;9.15;100.00;102071.19;6242254;22;44880;-85
2022/12/27 11:16:42;;;;;;;;;6.00;3.33;;;;;9.24;100.00;102068.91;6239559;22;45211;-84
2022/12/27 11:19:22;;;;;;;;;5.67;4.00;;;;;9.33;100.00;102056.03;6237360;22;45284;-86
2022/12/27 11:21:49;;;;;;;;;4.00;4.00;;;;;9.16;100.00;102015.50;6262871;22;45376;-86
2022/12/27 11:24:43;;;;;;;;;3.00;3.00;;;;;9.27;100.00;102021.28;6239011;22;45476;-87
2022/12/27 11:27:31;;;;;;;;;3.00;3.00;;;;;9.54;100.00;102065.69;6212819;22;47100;-86
2022/12/27 11:30:01;;;;;;;;;3.33;2.33;;;;;9.50;100.00;102046.06;6261938;22;45406;-85
2022/12/27 11:33:15;;;;;;;;;;;;;;;;;;;;;
2022/12/27 11:36:26;;;;;;;;;2.00;2.00;;;;;9.66;100.00;102038.72;6254210;22;65151;-87
2022/12/27 11:39:00;;;;;;;;;1.00;1.00;;;;;9.39;100.00;101984.59;6263212;22;45396;-87
2022/12/27 11:41:45;;;;;;;;;4.00;4.00;;;;;9.67;100.00;102033.44;6234555;22;44788;-87
2022/12/27 11:44:23;;;;;;;;;3.00;3.00;;;;;9.68;100.00;102029.06;6237674;22;45228;-86
2022/12/27 11:47:03;;;;;;;;;3.67;3.67;;;;;9.61;100.00;102015.53;6237107;22;45330;-86
2022/12/27 11:49:39;;;;;;;;;5.00;2.00;;;;;9.72;100.00;102028.31;6234802;22;45482;-86
2022/12/27 11:52:33;;;;;;;;;3.33;2.00;;;;;9.79;100.00;102028.59;6235351;22;45353;-86
2022/12/27 11:55:26;;;;;;;;;3.00;3.00;;;;;9.84;100.00;102034.09;6235850;22;44838;-86
2022/12/27 11:58:22;;;;;;;;;2.00;2.00;;;;;9.89;100.00;102026.28;6263431;22;45453;-86
2022/12/27 12:01:18;;;;;;;;;2.00;2.00;;;;;9.87;100.00;102022.66;6263194;22;45304;-87
2022/12/27 12:04:11;;;;;;;;;4.50;4.50;;;;;9.95;100.00;102043.34;6236534;22;44848;-86
2022/12/27 12:07:02;;;;;;;;;7.33;7.33;;;;;9.94;100.00;102040.66;6235927;22;45326;-86
2022/12/27 12:09:44;;;;;;;;;8.00;5.00;;;;;9.99;100.00;102039.06;6260467;22;44876;-86
2022/12/27 12:12:41;;;;;;;;;6.67;4.00;;;;;10.00;100.00;102028.50;6233296;22;46693;-87
2022/12/27 12:15:57;;;;;;;;;3.00;3.00;;;;;10.03;100.00;102030.38;6235641;22;45344;-87
2022/12/27 12:18:45;;;;;;;;;2.00;2.00;;;;;10.03;100.00;102033.03;6237051;22;45432;-87
2022/12/27 12:21:25;;;;;;;;;2.00;2.00;;;;;10.03;100.00;102033.03;6233224;22;45232;-87
2022/12/27 12:24:26;;;;;;;;;1.00;1.00;;;;;10.02;100.00;102033.88;6263059;22;45277;-87
2022/12/27 12:27:13;;;;;;;;;1.67;1.67;;;;;10.04;100.00;102017.97;6236628;22;45226;-87
2022/12/27 12:30:13;;;;;;;;;1.00;1.00;;;;;10.10;100.00;102019.13;6234982;22;45545;-87
2022/12/27 12:33:04;;;;;;;;;2.67;2.67;;;;;10.14;100.00;102015.72;6262334;22;45557;-86
2022/12/27 12:35:49;;;;;;;;;2.00;2.00;;;;;10.17;100.00;101994.56;6239833;22;47009;-86
2022/12/27 12:38:42;;;;;;;;;3.00;3.00;;;;;10.19;100.00;101992.84;6234637;22;44801;-85
2022/12/27 12:41:52;;;;;;;;;3.00;3.00;;;;;10.15;100.00;101985.63;6232450;22;45359;-87
2022/12/27 12:44:42;;;;;;;;;2.00;2.00;;;;;10.17;100.00;101989.22;6230917;22;44711;-87
2022/12/27 12:47:46;;;;;;;;;1.67;1.33;;;;;10.18;100.00;101987.50;6228002;22;47533;-86
2022/12/27 12:50:42;;;;;;;;;2.00;2.00;;;;;10.13;100.00;101957.19;6228460;22;45344;-86
2022/12/27 12:53:42;;;;;;;;;1.00;1.00;;;;;10.27;100.00;101969.19;6228921;22;44797;-86
2022/12/27 12:56:32;;;;;;;;;4.00;2.33;;;;;10.29;100.00;101955.97;6227729;22;45554;-86
2022/12/27 12:59:55;;;;;;;;;2.00;2.00;;;;;10.18;100.00;101931.69;6227322;22;46752;-87
2022/12/27 13:02:45;;;;;;;;;1.67;1.67;;;;;10.27;100.00;101950.59;6139444;23;44708;-85
2022/12/27 13:05:22;;;;;;;;;1.67;1.00;;;;;10.26;100.00;101951.44;6137476;23;45313;-86
2022/12/27 13:08:25;;;;;;;;;1.33;1.33;;;;;10.29;100.00;101945.31;6135261;23;45337;-86
2022/12/27 13:11:32;;;;;;;;;2.67;2.00;;;;;10.33;100.00;101940.19;6137067;23;45690;-86
2022/12/27 13:14:35;;;;;;;;;2.67;2.33;;;;;10.32;100.00;101941.06;6139975;23;44837;-87
2022/12/27 13:17:18;;;;;;;;;3.00;2.00;;;;;10.34;100.00;101933.13;6132380;23;45327;-86
2022/12/27 13:19:46;;;;;;;;;1.00;1.00;;;;;10.35;100.00;101935.84;6133556;23;45506;-87
2022/12/27 13:22:39;;;;;;;;;1.00;1.00;;;;;10.34;100.00;101930.44;6133473;23;45338;-86
2022/12/27 13:25:20;;;;;;;;;2.00;1.00;;;;;10.34;100.00;101926.06;6133556;23;45422;-86
2022/12/27 13:28:35;;;;;;;;;3.33;2.00;;;;;10.36;100.00;101928.75;6136713;23;45382;-87
2022/12/27 13:31:18;;;;;;;;;0.00;0.00;;;;;10.36;100.00;101916.38;6048586;23;45162;-86
2022/12/27 13:34:00;;;;;;;;;2.00;2.00;;;;;10.31;100.00;101903.78;6101035;23;46744;-86
2022/12/27 13:36:53;;;;;;;;;5.00;2.00;;;;;10.27;100.00;101897.41;6135486;23;45422;-87